Bole International Airport


Codes: HAAB/ADD
Name: Bole International Airport
City: Addis Ababa
Country: Ethiopia
Elevation: 7630 ft.
Website:
Wikipedia:

Photos at Bole International Airport


   Photos courtesy of SpottingLog. You can add your own sightings and photos by signing up for a free trial today.



No photos found.

Weather at Bole International Airport


Time (UTC)DescriptionTempratureWindCloud coverageVisibilityPressureHumidity
21-Jun-2024 12:00Light Rain22°C4 mph, E47%10000m1013hPa52%
21-Jun-2024 15:00Moderate Rain20°C2 mph, SE65%10000m1014hPa59%
21-Jun-2024 18:00Light Rain18°C2 mph, N82%10000m1015hPa69%
21-Jun-2024 21:00Light Rain15°C2 mph, NW78%10000m1017hPa82%
22-Jun-2024 00:00Light Rain14°C4 mph, W88%10000m1016hPa85%
22-Jun-2024 03:00Light Rain14°C4 mph, W100%10000m1017hPa87%
22-Jun-2024 06:00Light Rain18°C4 mph, W96%10000m1017hPa69%
22-Jun-2024 09:00Moderate Rain21°C2 mph, SE92%7227m1015hPa56%
22-Jun-2024 12:00Light Rain21°C4 mph, SW89%10000m1012hPa54%
22-Jun-2024 15:00Moderate Rain16°C7 mph, NW100%7115m1014hPa78%
22-Jun-2024 18:00Moderate Rain15°C7 mph, W91%10000m1016hPa87%
22-Jun-2024 21:00Overcast Clouds14°C4 mph, W92%10000m1017hPa85%
23-Jun-2024 00:00Overcast Clouds14°C4 mph, W96%10000m1015hPa83%
23-Jun-2024 03:00Overcast Clouds13°C2 mph, NW100%10000m1017hPa85%
23-Jun-2024 06:00Light Rain17°C4 mph, SW100%10000m1018hPa71%
23-Jun-2024 09:00Light Rain21°C4 mph, S100%10000m1014hPa57%
23-Jun-2024 12:00Moderate Rain17°C7 mph, NE100%7335m1014hPa77%
23-Jun-2024 15:00Moderate Rain15°C4 mph, W100%10000m1015hPa77%
23-Jun-2024 18:00Light Rain14°C4 mph, NW99%10000m1018hPa85%
23-Jun-2024 21:00Overcast Clouds13°C4 mph, W100%10000m1018hPa82%
24-Jun-2024 00:00Overcast Clouds13°C4 mph, NW100%10000m1017hPa83%
24-Jun-2024 03:00Light Rain14°C4 mph, NE100%10000m1019hPa86%
24-Jun-2024 06:00Moderate Rain13°C4 mph, SW100%10000m1020hPa88%
24-Jun-2024 09:00Overcast Clouds19°C4 mph, W100%10000m1016hPa61%
24-Jun-2024 12:00Overcast Clouds21°C7 mph, SW100%10000m1012hPa52%
24-Jun-2024 15:00Moderate Rain15°C9 mph, NW100%10000m1015hPa82%
24-Jun-2024 18:00Light Rain15°C4 mph, NW99%10000m1016hPa81%
24-Jun-2024 21:00Light Rain14°C4 mph, NW99%10000m1016hPa85%
25-Jun-2024 00:00Light Rain14°C4 mph, NW99%10000m1015hPa84%
25-Jun-2024 03:00Light Rain14°C4 mph, NW100%10000m1017hPa88%
25-Jun-2024 06:00Moderate Rain13°C2 mph, NW100%9301m1020hPa88%
25-Jun-2024 09:00Light Rain17°C4 mph, SW100%10000m1016hPa68%
25-Jun-2024 12:00Overcast Clouds20°C4 mph, SW100%10000m1012hPa56%
25-Jun-2024 15:00Light Rain19°C4 mph, SW92%10000m1012hPa65%
25-Jun-2024 18:00Light Rain16°C2 mph, W95%10000m1015hPa79%
25-Jun-2024 21:00Light Rain15°C4 mph, W100%10000m1015hPa83%
26-Jun-2024 00:00Light Rain15°C2 mph, NW100%10000m1014hPa84%
26-Jun-2024 03:00Moderate Rain13°C4 mph, NW100%8958m1017hPa89%
26-Jun-2024 06:00Moderate Rain13°C4 mph, NW100%10000m1019hPa88%
26-Jun-2024 09:00Light Rain18°C4 mph, W100%10000m1015hPa69%